createdAt,value
2023-02-17T00:00:17.619Z,21.7
2023-02-17T00:02:01.439Z,21.7
2023-02-17T00:03:44.731Z,21.7
2023-02-17T00:05:28.137Z,21.7
2023-02-17T00:07:11.509Z,21.7
2023-02-17T00:08:54.886Z,21.7
2023-02-17T00:10:38.327Z,21.7
2023-02-17T00:12:21.667Z,21.7
2023-02-17T00:14:05.068Z,21.7
2023-02-17T00:19:14.315Z,21.7
2023-02-17T00:20:57.739Z,21.7
2023-02-17T00:22:41.091Z,21.7
2023-02-17T00:24:24.477Z,21.7
2023-02-17T00:26:07.864Z,21.7
2023-02-17T00:27:51.260Z,21.7
2023-02-17T00:29:34.679Z,21.7
2023-02-17T00:31:18.079Z,21.7
2023-02-17T00:34:44.614Z,21.7
2023-02-17T00:36:27.952Z,21.7
2023-02-17T00:38:11.347Z,21.7
2023-02-17T00:39:54.752Z,21.7
2023-02-17T00:41:38.142Z,21.7
2023-02-17T00:43:21.518Z,21.7
2023-02-17T00:45:04.922Z,21.7
2023-02-17T00:46:48.336Z,21.7
2023-02-17T00:50:14.763Z,21.7
2023-02-17T00:51:58.170Z,21.7
2023-02-17T00:53:41.568Z,21.7
2023-02-17T00:55:25.020Z,21.7
2023-02-17T00:57:08.434Z,21.7
2023-02-17T00:58:51.794Z,21.7
2023-02-17T01:00:35.153Z,21.7
2023-02-17T01:02:18.540Z,21.7
2023-02-17T01:07:27.811Z,21.7
2023-02-17T01:09:11.187Z,21.7
2023-02-17T01:10:54.592Z,21.7
2023-02-17T01:12:37.984Z,21.7
2023-02-17T01:14:21.386Z,21.7
2023-02-17T01:16:04.771Z,21.7
2023-02-17T01:17:48.157Z,21.7
2023-02-17T01:19:31.599Z,21.7
2023-02-17T01:22:58.049Z,21.7
2023-02-17T01:24:41.520Z,21.7
2023-02-17T01:26:24.819Z,21.7
2023-02-17T01:28:08.236Z,21.7
2023-02-17T01:29:51.655Z,21.7
2023-02-17T01:31:35.017Z,21.6
2023-02-17T01:33:18.437Z,21.6
2023-02-17T01:35:01.839Z,21.6
2023-02-17T01:38:28.280Z,21.6
2023-02-17T01:40:11.670Z,21.6
2023-02-17T01:41:55.085Z,21.6
2023-02-17T01:43:38.459Z,21.6
2023-02-17T01:45:21.866Z,21.6
2023-02-17T01:47:05.247Z,21.6
2023-02-17T01:48:48.653Z,21.6
2023-02-17T01:50:32.061Z,21.6
2023-02-17T01:53:58.542Z,21.6
2023-02-17T01:55:41.913Z,21.6
2023-02-17T01:57:25.341Z,21.6
2023-02-17T01:59:08.704Z,21.6
2023-02-17T02:00:52.126Z,21.6
2023-02-17T02:02:35.501Z,21.6
2023-02-17T02:04:18.903Z,21.6
2023-02-17T02:06:02.296Z,21.6
2023-02-17T02:09:28.770Z,21.6
2023-02-17T02:11:12.174Z,21.6
2023-02-17T02:12:55.607Z,21.6
2023-02-17T02:14:39.049Z,21.6
2023-02-17T02:16:22.371Z,21.6
2023-02-17T02:18:05.774Z,21.6
2023-02-17T02:19:49.160Z,21.6
2023-02-17T02:26:41.790Z,21.6
2023-02-17T02:28:25.265Z,21.6
2023-02-17T02:30:08.585Z,21.6
2023-02-17T02:31:51.984Z,21.6
2023-02-17T02:33:35.397Z,21.6
2023-02-17T02:35:18.868Z,21.6
2023-02-17T02:37:02.180Z,21.6
2023-02-17T02:38:45.593Z,21.6
2023-02-17T02:42:12.041Z,21.6
2023-02-17T02:43:55.453Z,21.6
2023-02-17T02:45:38.853Z,21.6
2023-02-17T02:47:22.228Z,21.6
2023-02-17T02:49:05.610Z,21.6
2023-02-17T02:50:49.021Z,21.6
2023-02-17T02:52:32.494Z,21.6
2023-02-17T02:54:15.863Z,21.6
2023-02-17T02:59:25.059Z,21.6
2023-02-17T03:01:08.492Z,21.6
2023-02-17T03:02:51.851Z,21.6
2023-02-17T03:04:35.248Z,21.6
2023-02-17T03:06:18.678Z,21.6
2023-02-17T03:08:02.045Z,21.6
2023-02-17T03:09:45.482Z,21.6
2023-02-17T03:11:28.820Z,21.6
2023-02-17T03:14:55.320Z,21.6
2023-02-17T03:16:38.697Z,21.6
2023-02-17T03:18:22.151Z,21.6
2023-02-17T03:20:05.498Z,21.6
2023-02-17T03:21:48.947Z,21.6
2023-02-17T03:23:32.273Z,21.6
2023-02-17T03:25:15.685Z,21.6
2023-02-17T03:26:59.087Z,21.6
2023-02-17T03:30:25.571Z,21.6
2023-02-17T03:32:08.955Z,21.6
2023-02-17T03:33:52.365Z,21.6
2023-02-17T03:35:35.763Z,21.6
2023-02-17T03:37:19.155Z,21.5
2023-02-17T03:39:02.533Z,21.5
2023-02-17T03:40:45.940Z,21.5
2023-02-17T03:42:29.323Z,21.6
2023-02-17T03:45:55.812Z,21.5
2023-02-17T03:47:39.215Z,21.5
2023-02-17T03:49:22.585Z,21.5
2023-02-17T03:51:05.973Z,21.6
2023-02-17T03:52:49.394Z,21.5
2023-02-17T03:54:32.776Z,21.5
2023-02-17T03:56:16.190Z,21.5
2023-02-17T03:57:59.611Z,21.5
2023-02-17T04:01:26.033Z,21.5
2023-02-17T04:03:09.431Z,21.5
2023-02-17T04:04:52.839Z,21.5
2023-02-17T04:06:36.256Z,21.5
2023-02-17T04:08:19.722Z,21.5
2023-02-17T04:10:03.062Z,21.5
2023-02-17T04:11:46.459Z,21.5
2023-02-17T04:13:29.829Z,21.5
2023-02-17T04:16:56.300Z,21.5
2023-02-17T04:18:39.719Z,21.5
2023-02-17T04:20:23.098Z,21.5
2023-02-17T04:22:06.473Z,21.5
2023-02-17T04:23:49.899Z,21.5
2023-02-17T04:25:33.286Z,21.5
2023-02-17T04:27:16.680Z,21.5
2023-02-17T04:29:00.067Z,21.5
2023-02-17T04:32:26.542Z,21.5
2023-02-17T04:34:09.947Z,21.5
2023-02-17T04:35:53.325Z,21.5
2023-02-17T04:37:36.737Z,21.5
2023-02-17T04:39:20.116Z,21.5
2023-02-17T04:41:03.558Z,21.5
2023-02-17T04:42:46.952Z,21.5
2023-02-17T04:44:30.313Z,21.5
2023-02-17T04:49:39.568Z,21.5
2023-02-17T04:51:22.953Z,21.5
2023-02-17T04:53:06.355Z,21.5
2023-02-17T04:54:49.753Z,21.5
2023-02-17T04:56:33.145Z,21.5
2023-02-17T04:58:16.531Z,21.5
2023-02-17T04:59:59.935Z,21.5
2023-02-17T05:01:43.346Z,21.5
2023-02-17T05:06:52.583Z,21.5
2023-02-17T05:08:35.969Z,21.5
2023-02-17T05:10:19.371Z,21.5
2023-02-17T05:12:02.780Z,21.5
2023-02-17T05:13:46.160Z,21.5
2023-02-17T05:15:29.566Z,21.5
2023-02-17T05:17:13.037Z,21.5
2023-02-17T05:18:56.418Z,21.5
2023-02-17T05:22:22.839Z,21.5
2023-02-17T05:24:06.248Z,21.5
2023-02-17T05:25:49.622Z,21.5
2023-02-17T05:27:33.016Z,21.5
2023-02-17T05:29:16.421Z,21.5
2023-02-17T05:30:59.800Z,21.5
2023-02-17T05:32:43.277Z,21.5
2023-02-17T05:34:26.616Z,21.5
2023-02-17T05:37:53.139Z,21.5
2023-02-17T05:39:36.489Z,21.5
2023-02-17T05:41:19.894Z,21.5
2023-02-17T05:43:03.277Z,21.5
2023-02-17T05:44:46.674Z,21.5
2023-02-17T05:46:30.077Z,21.5
2023-02-17T05:48:13.481Z,21.5
2023-02-17T05:49:56.859Z,21.5
2023-02-17T05:55:06.102Z,21.5
2023-02-17T05:56:49.500Z,21.5
2023-02-17T05:58:32.916Z,21.5
2023-02-17T06:00:16.284Z,21.5
2023-02-17T06:01:59.671Z,21.5
2023-02-17T06:03:43.092Z,21.5
2023-02-17T06:05:26.483Z,21.5
2023-02-17T06:07:09.878Z,21.5
2023-02-17T06:08:53.271Z,21.5
2023-02-17T06:10:36.994Z,21.5
2023-02-17T06:12:20.378Z,21.5
2023-02-17T06:14:03.771Z,21.5
2023-02-17T06:15:47.173Z,21.5
2023-02-17T06:17:30.593Z,21.5
2023-02-17T06:19:13.984Z,21.5
2023-02-17T06:20:57.351Z,21.4
2023-02-17T06:22:40.741Z,21.4
2023-02-17T06:24:24.150Z,21.5
2023-02-17T06:27:50.618Z,21.4
2023-02-17T06:29:34.043Z,21.4
2023-02-17T06:31:17.408Z,21.4
2023-02-17T06:33:00.826Z,21.4
2023-02-17T06:34:44.241Z,21.4
2023-02-17T06:36:27.597Z,21.4
2023-02-17T06:38:10.981Z,21.4
2023-02-17T06:39:54.377Z,21.4
2023-02-17T06:41:37.773Z,21.4
2023-02-17T06:45:04.253Z,21.4
2023-02-17T06:46:47.658Z,21.4
2023-02-17T06:48:31.042Z,21.4
2023-02-17T06:50:14.434Z,21.4
2023-02-17T06:51:57.851Z,21.4
2023-02-17T06:53:41.231Z,21.4
2023-02-17T06:55:24.627Z,21.4
2023-02-17T06:57:08.018Z,21.4
2023-02-17T07:02:17.274Z,21.4
2023-02-17T07:04:00.671Z,21.4
2023-02-17T07:05:44.134Z,21.4
2023-02-17T07:07:27.464Z,21.4
2023-02-17T07:09:10.903Z,21.4
2023-02-17T07:10:54.264Z,21.4
2023-02-17T07:12:37.645Z,21.4
2023-02-17T07:14:21.120Z,21.4
2023-02-17T07:16:04.568Z,21.4
2023-02-17T07:17:48.195Z,21.4
2023-02-17T07:19:31.597Z,21.4
2023-02-17T07:21:15.020Z,21.4
2023-02-17T07:22:58.392Z,21.4
2023-02-17T07:24:41.796Z,21.4
2023-02-17T07:26:25.163Z,21.4
2023-02-17T07:28:08.542Z,21.4
2023-02-17T07:29:51.966Z,21.4
2023-02-17T07:35:01.210Z,21.4
2023-02-17T07:36:44.589Z,21.4
2023-02-17T07:38:28.018Z,21.4
2023-02-17T07:40:11.462Z,21.4
2023-02-17T07:41:54.766Z,21.4
2023-02-17T07:43:38.181Z,21.4
2023-02-17T07:45:21.552Z,21.4
2023-02-17T07:47:04.924Z,21.4
2023-02-17T07:52:14.294Z,21.4
2023-02-17T07:53:57.695Z,21.4
2023-02-17T07:55:41.043Z,21.4
2023-02-17T07:57:24.444Z,21.4
2023-02-17T07:59:07.769Z,21.4
2023-02-17T08:00:51.161Z,21.4
2023-02-17T08:02:34.643Z,21.4
2023-02-17T08:04:18.083Z,21.4
2023-02-17T08:09:27.295Z,21.4
2023-02-17T08:11:10.741Z,21.4
2023-02-17T08:12:54.148Z,21.4
2023-02-17T08:14:37.536Z,21.4
2023-02-17T08:16:20.780Z,21.5
2023-02-17T08:18:04.201Z,21.5
2023-02-17T08:19:47.630Z,21.5
2023-02-17T08:21:31.108Z,21.5
2023-02-17T08:23:14.447Z,21.5
2023-02-17T08:24:58.067Z,21.5
2023-02-17T08:26:41.449Z,21.5
2023-02-17T08:28:24.893Z,21.5
2023-02-17T08:30:08.310Z,21.5
2023-02-17T08:31:51.761Z,21.5
2023-02-17T08:33:35.110Z,21.6
2023-02-17T08:35:18.444Z,21.6
2023-02-17T08:37:01.837Z,21.6
2023-02-17T08:42:11.076Z,21.6
2023-02-17T08:43:54.483Z,21.6
2023-02-17T08:45:37.972Z,21.6
2023-02-17T08:47:21.418Z,21.6
2023-02-17T08:49:04.659Z,21.6
2023-02-17T08:50:48.301Z,21.6
2023-02-17T08:52:31.513Z,21.6
2023-02-17T08:54:14.978Z,21.6
2023-02-17T08:55:58.696Z,21.6
2023-02-17T08:59:25.496Z,21.6
2023-02-17T09:01:08.857Z,21.6
2023-02-17T09:02:52.143Z,21.6
2023-02-17T09:04:35.768Z,21.6
2023-02-17T09:06:19.090Z,21.6
2023-02-17T09:08:02.443Z,21.6
2023-02-17T09:11:28.868Z,21.5
2023-02-17T09:13:12.302Z,21.5
2023-02-17T09:14:55.764Z,21.5
2023-02-17T09:16:39.051Z,21.5
2023-02-17T09:18:22.549Z,21.5
2023-02-17T09:20:05.812Z,21.5
2023-02-17T09:21:49.222Z,21.5
2023-02-17T09:23:32.658Z,21.5
2023-02-17T09:26:59.182Z,21.5
2023-02-17T09:28:42.474Z,21.5
2023-02-17T09:30:25.878Z,21.5
2023-02-17T09:32:09.275Z,21.5
2023-02-17T09:33:52.667Z,21.5
2023-02-17T09:35:36.040Z,21.5
2023-02-17T09:37:19.433Z,21.5
2023-02-17T09:39:02.811Z,21.5
2023-02-17T09:42:29.321Z,21.5
2023-02-17T09:44:12.692Z,21.5
2023-02-17T09:45:56.173Z,21.5
2023-02-17T09:47:39.487Z,21.5
2023-02-17T09:49:22.922Z,21.5
2023-02-17T09:51:06.274Z,21.5
2023-02-17T09:52:49.686Z,21.5
2023-02-17T09:54:33.070Z,21.5
2023-02-17T09:57:59.531Z,21.4
2023-02-17T09:59:42.985Z,21.5
2023-02-17T10:01:26.350Z,21.5
2023-02-17T10:03:09.832Z,21.4
2023-02-17T10:04:53.129Z,21.4
2023-02-17T10:06:36.506Z,21.4
2023-02-17T10:08:19.911Z,21.4
2023-02-17T10:10:03.304Z,21.4
2023-02-17T10:15:12.550Z,21.4
2023-02-17T10:16:55.927Z,21.4
2023-02-17T10:18:39.348Z,21.4
2023-02-17T10:20:22.728Z,21.4
2023-02-17T10:22:06.146Z,21.5
2023-02-17T10:23:49.544Z,21.5
2023-02-17T10:25:32.921Z,21.5
2023-02-17T10:27:16.321Z,21.5
2023-02-17T10:30:42.826Z,21.5
2023-02-17T10:32:26.201Z,21.5
2023-02-17T10:34:09.571Z,21.5
2023-02-17T10:35:52.987Z,21.5
2023-02-17T10:37:36.426Z,21.5
2023-02-17T10:39:19.764Z,21.5
2023-02-17T10:41:03.222Z,21.5
2023-02-17T10:42:46.554Z,21.5
2023-02-17T10:47:55.810Z,21.5
2023-02-17T10:49:39.227Z,21.5
2023-02-17T10:51:22.574Z,21.5
2023-02-17T10:53:05.985Z,21.5
2023-02-17T10:54:49.413Z,21.5
2023-02-17T10:56:32.813Z,21.5
2023-02-17T10:58:16.194Z,21.5
2023-02-17T10:59:59.582Z,21.5
2023-02-17T11:03:26.037Z,21.5
2023-02-17T11:05:09.454Z,21.5
2023-02-17T11:06:52.853Z,21.5
2023-02-17T11:08:36.312Z,21.5
2023-02-17T11:10:19.637Z,21.5
2023-02-17T11:12:03.087Z,21.6
2023-02-17T11:13:46.551Z,21.6
2023-02-17T11:15:29.856Z,21.6
2023-02-17T11:20:39.115Z,21.6
2023-02-17T11:22:22.532Z,21.6
2023-02-17T11:24:05.863Z,21.6
2023-02-17T11:25:49.253Z,21.6
2023-02-17T11:27:32.737Z,21.6
2023-02-17T11:29:16.187Z,21.6
2023-02-17T11:30:59.562Z,21.6
2023-02-17T11:32:42.848Z,21.6
2023-02-17T11:36:09.386Z,21.6
2023-02-17T11:37:52.722Z,21.6
2023-02-17T11:39:36.101Z,21.6
2023-02-17T11:41:19.486Z,21.6
2023-02-17T11:43:02.930Z,21.6
2023-02-17T11:44:46.374Z,21.6
2023-02-17T11:46:29.790Z,21.6
2023-02-17T11:48:13.240Z,21.6
2023-02-17T11:51:39.578Z,21.6
2023-02-17T11:53:23.012Z,21.6
2023-02-17T11:55:06.411Z,21.6
2023-02-17T11:56:49.795Z,21.6
2023-02-17T11:58:33.176Z,21.6
2023-02-17T12:00:16.547Z,21.6
2023-02-17T12:01:59.940Z,21.6
2023-02-17T12:03:43.340Z,21.7
2023-02-17T12:07:09.817Z,21.7
2023-02-17T12:08:53.235Z,21.7
2023-02-17T12:10:36.587Z,21.7
2023-02-17T12:12:20.286Z,21.6
2023-02-17T12:14:03.391Z,21.7
2023-02-17T12:15:46.834Z,21.7
2023-02-17T12:17:30.178Z,21.7
2023-02-17T12:19:13.590Z,21.7
2023-02-17T12:22:40.053Z,21.7
2023-02-17T12:24:23.452Z,21.7
2023-02-17T12:26:06.841Z,21.7
2023-02-17T12:27:50.239Z,21.7
2023-02-17T12:29:33.663Z,21.7
2023-02-17T12:31:17.031Z,21.7
2023-02-17T12:33:00.457Z,21.7
2023-02-17T12:34:43.802Z,21.7
2023-02-17T12:38:10.317Z,21.7
2023-02-17T12:39:53.700Z,21.7
2023-02-17T12:41:37.099Z,21.7
2023-02-17T12:43:20.524Z,21.7
2023-02-17T12:45:03.947Z,21.7
2023-02-17T12:46:47.313Z,21.7
2023-02-17T12:48:30.707Z,21.7
2023-02-17T12:50:14.066Z,21.7
2023-02-17T12:53:40.597Z,21.7
2023-02-17T12:55:23.955Z,21.7
2023-02-17T12:57:07.347Z,21.7
2023-02-17T12:58:50.746Z,21.7
2023-02-17T13:00:34.159Z,21.7
2023-02-17T13:02:17.528Z,21.8
2023-02-17T13:04:00.991Z,21.8
2023-02-17T13:05:44.377Z,21.8
2023-02-17T13:07:27.727Z,21.8
2023-02-17T13:09:11.416Z,21.8
2023-02-17T13:10:54.902Z,21.8
2023-02-17T13:12:38.215Z,21.8
2023-02-17T13:14:21.605Z,21.8
2023-02-17T13:16:05.015Z,21.8
2023-02-17T13:17:48.389Z,21.8
2023-02-17T13:19:31.811Z,21.8
2023-02-17T13:21:15.331Z,21.8
2023-02-17T13:26:24.430Z,21.8
2023-02-17T13:28:07.819Z,21.8
2023-02-17T13:29:51.258Z,21.8
2023-02-17T13:31:34.657Z,21.7
2023-02-17T13:33:18.017Z,21.7
2023-02-17T13:35:01.414Z,21.7
2023-02-17T13:36:44.805Z,21.7
2023-02-17T13:38:28.258Z,21.7
2023-02-17T13:43:37.441Z,21.7
2023-02-17T13:45:20.871Z,21.7
2023-02-17T13:47:04.236Z,21.7
2023-02-17T13:48:47.693Z,21.7
2023-02-17T13:50:31.034Z,21.7
2023-02-17T13:52:14.495Z,21.7
2023-02-17T13:53:57.817Z,21.7
2023-02-17T13:55:41.231Z,21.7
2023-02-17T13:59:07.699Z,21.7
2023-02-17T14:00:51.087Z,21.7
2023-02-17T14:02:34.479Z,21.7
2023-02-17T14:04:17.893Z,21.7
2023-02-17T14:06:01.267Z,21.7
2023-02-17T14:07:44.740Z,21.7
2023-02-17T14:09:28.150Z,21.7
2023-02-17T14:11:11.460Z,21.7
2023-02-17T14:16:20.702Z,21.7
2023-02-17T14:18:04.094Z,21.7
2023-02-17T14:19:47.522Z,21.7
2023-02-17T14:21:30.892Z,21.7
2023-02-17T14:23:14.286Z,21.7
2023-02-17T14:24:57.738Z,21.7
2023-02-17T14:26:41.077Z,21.7
2023-02-17T14:28:24.479Z,21.7
2023-02-17T14:33:33.737Z,21.7
2023-02-17T14:35:17.116Z,21.7
2023-02-17T14:37:00.602Z,21.7
2023-02-17T14:38:43.947Z,21.7
2023-02-17T14:40:27.307Z,21.7
2023-02-17T14:42:10.713Z,21.7
2023-02-17T14:43:54.109Z,21.7
2023-02-17T14:45:37.498Z,21.7
2023-02-17T14:47:20.898Z,21.7
2023-02-17T14:49:04.582Z,21.7
2023-02-17T14:50:48.095Z,21.7
2023-02-17T14:52:31.383Z,21.7
2023-02-17T14:54:14.788Z,21.7
2023-02-17T14:55:58.177Z,21.7
2023-02-17T14:57:41.577Z,21.7
2023-02-17T14:59:24.984Z,21.7
2023-02-17T15:01:08.424Z,21.7
2023-02-17T15:06:17.621Z,21.7
2023-02-17T15:08:01.052Z,21.7
2023-02-17T15:09:44.489Z,21.7
2023-02-17T15:11:27.800Z,21.7
2023-02-17T15:13:11.266Z,21.7
2023-02-17T15:14:54.651Z,21.7
2023-02-17T15:16:38.035Z,21.7
2023-02-17T15:18:21.454Z,21.7
2023-02-17T15:20:04.824Z,21.7
2023-02-17T15:21:48.567Z,21.7
2023-02-17T15:23:31.942Z,21.7
2023-02-17T15:25:15.303Z,21.7
2023-02-17T15:26:58.726Z,21.7
2023-02-17T15:28:42.171Z,21.7
2023-02-17T15:30:25.477Z,21.7
2023-02-17T15:32:08.864Z,21.7
2023-02-17T15:33:52.269Z,21.7
2023-02-17T15:35:35.638Z,21.7
2023-02-17T15:39:02.159Z,21.7
2023-02-17T15:40:45.525Z,21.7
2023-02-17T15:42:28.916Z,21.7
2023-02-17T15:44:12.311Z,21.7
2023-02-17T15:45:55.698Z,21.7
2023-02-17T15:47:39.118Z,21.7
2023-02-17T15:49:22.580Z,21.7
2023-02-17T15:51:05.916Z,21.7
2023-02-17T15:54:32.368Z,21.7
2023-02-17T15:56:15.772Z,21.7
2023-02-17T15:57:59.168Z,21.7
2023-02-17T15:59:42.610Z,21.7
2023-02-17T16:01:25.955Z,21.8
2023-02-17T16:03:09.364Z,21.8
2023-02-17T16:04:52.752Z,21.8
2023-02-17T16:06:36.197Z,21.8
2023-02-17T16:08:19.596Z,21.8
2023-02-17T16:10:03.254Z,21.9
2023-02-17T16:11:46.644Z,21.9
2023-02-17T16:13:30.033Z,21.9
2023-02-17T16:15:13.428Z,21.9
2023-02-17T16:16:56.831Z,21.9
2023-02-17T16:18:40.241Z,21.9
2023-02-17T16:20:23.627Z,21.9
2023-02-17T16:22:07.049Z,21.9
2023-02-17T16:23:50.557Z,21.9
2023-02-17T16:25:34.135Z,22
2023-02-17T16:27:17.519Z,22
2023-02-17T16:29:00.926Z,22
2023-02-17T16:30:44.407Z,22.1
2023-02-17T16:32:27.721Z,22.1
2023-02-17T16:34:11.178Z,22.1
2023-02-17T16:35:54.513Z,22.1
2023-02-17T16:37:37.899Z,22.1
2023-02-17T16:42:47.167Z,22.1
2023-02-17T16:44:30.573Z,22.1
2023-02-17T16:46:13.922Z,22.1
2023-02-17T16:47:57.382Z,22.1
2023-02-17T16:49:40.732Z,22.1
2023-02-17T16:53:07.506Z,22.1
2023-02-17T16:54:50.903Z,22.1
2023-02-17T16:58:17.410Z,22.1
2023-02-17T17:00:00.801Z,22.1
2023-02-17T17:01:44.187Z,22.1
2023-02-17T17:03:27.570Z,22
2023-02-17T17:05:10.958Z,22
2023-02-17T17:06:54.351Z,22
2023-02-17T17:08:37.757Z,22
2023-02-17T17:10:21.139Z,22
2023-02-17T17:13:47.645Z,22
2023-02-17T17:15:31.015Z,22
2023-02-17T17:17:14.489Z,22
2023-02-17T17:18:57.828Z,22
2023-02-17T17:20:41.220Z,22
2023-02-17T17:22:24.603Z,22
2023-02-17T17:24:08.024Z,22
2023-02-17T17:25:51.397Z,22
2023-02-17T17:29:17.866Z,22
2023-02-17T17:31:01.347Z,22
2023-02-17T17:32:44.670Z,22
2023-02-17T17:34:28.067Z,22
2023-02-17T17:36:11.457Z,22
2023-02-17T17:37:54.877Z,22
2023-02-17T17:39:38.269Z,22
2023-02-17T17:41:21.762Z,22
2023-02-17T17:44:48.148Z,22
2023-02-17T17:46:31.521Z,22
2023-02-17T17:48:14.951Z,22
2023-02-17T17:49:58.430Z,22
2023-02-17T17:51:41.710Z,22
2023-02-17T17:53:25.106Z,22.1
2023-02-17T17:55:08.523Z,22.1
2023-02-17T17:56:51.894Z,22
2023-02-17T18:00:18.386Z,22
2023-02-17T18:02:01.775Z,22
2023-02-17T18:03:45.173Z,22
2023-02-17T18:05:28.564Z,22
2023-02-17T18:07:11.952Z,22
2023-02-17T18:08:55.358Z,22
2023-02-17T18:10:38.762Z,22
2023-02-17T18:12:22.143Z,22
2023-02-17T18:15:48.612Z,22
2023-02-17T18:17:32.034Z,22
2023-02-17T18:19:15.450Z,22
2023-02-17T18:20:58.896Z,22
2023-02-17T18:22:42.227Z,22
2023-02-17T18:24:25.668Z,22
2023-02-17T18:26:09.057Z,21.9
2023-02-17T18:27:52.485Z,21.9
2023-02-17T18:31:18.952Z,21.9
2023-02-17T18:33:02.262Z,21.9
2023-02-17T18:34:45.827Z,21.9
2023-02-17T18:36:29.052Z,21.9
2023-02-17T18:38:12.502Z,21.9
2023-02-17T18:39:55.859Z,21.9
2023-02-17T18:41:39.250Z,21.9
2023-02-17T18:43:22.623Z,21.9
2023-02-17T18:48:31.862Z,21.9
2023-02-17T18:50:15.271Z,21.9
2023-02-17T18:51:58.762Z,21.9
2023-02-17T18:53:42.108Z,21.9
2023-02-17T18:55:25.495Z,21.9
2023-02-17T18:57:08.859Z,21.9
2023-02-17T18:58:52.242Z,21.9
2023-02-17T19:00:35.656Z,21.9
2023-02-17T19:04:02.139Z,21.9
2023-02-17T19:05:45.647Z,21.9
2023-02-17T19:07:28.914Z,21.9
2023-02-17T19:09:12.310Z,21.9
2023-02-17T19:10:55.705Z,21.9
2023-02-17T19:12:39.123Z,21.9
2023-02-17T19:14:22.591Z,21.9
2023-02-17T19:16:05.908Z,21.9
2023-02-17T19:21:15.136Z,21.9
2023-02-17T19:22:58.554Z,21.9
2023-02-17T19:24:41.959Z,21.9
2023-02-17T19:26:25.329Z,21.9
2023-02-17T19:28:08.744Z,21.9
2023-02-17T19:29:52.154Z,21.9
2023-02-17T19:31:35.553Z,21.9
2023-02-17T19:33:18.898Z,21.9
2023-02-17T19:36:45.367Z,21.9
2023-02-17T19:38:28.821Z,21.9
2023-02-17T19:40:12.200Z,21.9
2023-02-17T19:41:55.594Z,21.9
2023-02-17T19:45:22.560Z,21.9
2023-02-17T19:47:05.845Z,21.9
2023-02-17T19:48:49.194Z,21.9
2023-02-17T19:53:58.415Z,21.9
2023-02-17T19:55:41.791Z,21.9
2023-02-17T19:57:25.181Z,21.9
2023-02-17T19:59:08.634Z,21.9
2023-02-17T20:00:51.986Z,21.9
2023-02-17T20:02:35.529Z,21.9
2023-02-17T20:04:18.923Z,21.9
2023-02-17T20:06:02.281Z,21.9
2023-02-17T20:09:28.690Z,21.9
2023-02-17T20:11:12.049Z,21.8
2023-02-17T20:12:55.452Z,21.8
2023-02-17T20:14:38.908Z,21.8
2023-02-17T20:16:22.307Z,21.8
2023-02-17T20:18:05.636Z,21.9
2023-02-17T20:19:49.137Z,21.8
2023-02-17T20:21:32.424Z,21.9
2023-02-17T20:24:58.982Z,21.9
2023-02-17T20:26:42.477Z,21.9
2023-02-17T20:28:25.693Z,21.8
2023-02-17T20:30:09.161Z,21.8
2023-02-17T20:31:52.477Z,21.9
2023-02-17T20:33:35.899Z,21.9
2023-02-17T20:35:19.258Z,21.9
2023-02-17T20:37:02.668Z,21.9
2023-02-17T20:42:11.898Z,21.9
2023-02-17T20:43:55.305Z,21.9
2023-02-17T20:45:38.702Z,21.9
2023-02-17T20:47:22.109Z,21.9
2023-02-17T20:49:05.554Z,21.9
2023-02-17T20:50:48.900Z,21.9
2023-02-17T20:52:32.306Z,21.9
2023-02-17T20:54:15.751Z,21.9
2023-02-17T20:59:24.917Z,21.9
2023-02-17T21:01:08.337Z,21.9
2023-02-17T21:02:51.731Z,21.9
2023-02-17T21:04:35.130Z,21.9
2023-02-17T21:06:18.517Z,21.9
2023-02-17T21:08:01.940Z,21.9
2023-02-17T21:09:45.342Z,21.9
2023-02-17T21:11:28.763Z,21.9
2023-02-17T21:14:55.181Z,21.9
2023-02-17T21:16:38.611Z,21.9
2023-02-17T21:18:22.060Z,21.9
2023-02-17T21:20:05.347Z,21.9
2023-02-17T21:21:48.787Z,21.9
2023-02-17T21:23:32.159Z,21.9
2023-02-17T21:25:15.597Z,21.9
2023-02-17T21:26:58.963Z,21.8
2023-02-17T21:30:25.660Z,21.8
2023-02-17T21:32:08.806Z,21.8
2023-02-17T21:33:52.328Z,21.8
2023-02-17T21:35:35.640Z,21.8
2023-02-17T21:37:18.999Z,21.8
2023-02-17T21:39:02.409Z,21.8
2023-02-17T21:40:45.785Z,21.8
2023-02-17T21:42:29.200Z,21.8
2023-02-17T21:45:55.658Z,21.8
2023-02-17T21:47:39.054Z,21.8
2023-02-17T21:49:22.447Z,21.8
2023-02-17T21:51:05.854Z,21.8
2023-02-17T21:52:49.244Z,21.8
2023-02-17T21:54:32.661Z,21.8
2023-02-17T21:56:16.040Z,21.8
2023-02-17T21:57:59.445Z,21.8
2023-02-17T22:01:25.948Z,21.8
2023-02-17T22:03:09.322Z,21.8
2023-02-17T22:04:52.709Z,21.8
2023-02-17T22:06:36.100Z,21.8
2023-02-17T22:08:19.490Z,21.8
2023-02-17T22:10:02.983Z,21.8
2023-02-17T22:11:46.302Z,21.8
2023-02-17T22:13:29.684Z,21.8
2023-02-17T22:18:39.008Z,21.8
2023-02-17T22:22:05.721Z,21.8
2023-02-17T22:23:49.155Z,21.8
2023-02-17T22:25:32.547Z,21.8
2023-02-17T22:27:15.902Z,21.8
2023-02-17T22:28:59.306Z,21.8
2023-02-17T22:30:42.728Z,21.8
2023-02-17T22:32:26.446Z,21.8
2023-02-17T22:34:09.862Z,21.8
2023-02-17T22:35:53.187Z,21.8
2023-02-17T22:37:36.589Z,21.8
2023-02-17T22:39:19.989Z,21.8
2023-02-17T22:41:03.398Z,21.8
2023-02-17T22:42:46.770Z,21.8
2023-02-17T22:44:30.167Z,21.8
2023-02-17T22:49:39.475Z,21.8
2023-02-17T22:51:22.860Z,21.8
2023-02-17T22:53:06.302Z,21.8
2023-02-17T22:54:49.622Z,21.8
2023-02-17T22:56:33.072Z,21.8
2023-02-17T22:58:16.413Z,21.8
2023-02-17T22:59:59.810Z,21.8
2023-02-17T23:01:43.198Z,21.8
2023-02-17T23:05:09.685Z,21.8
2023-02-17T23:06:53.163Z,21.8
2023-02-17T23:08:36.459Z,21.8
2023-02-17T23:10:19.914Z,21.8
2023-02-17T23:12:03.303Z,21.8
2023-02-17T23:13:46.795Z,21.8
2023-02-17T23:15:30.039Z,21.8
2023-02-17T23:17:13.437Z,21.8
2023-02-17T23:20:39.913Z,21.8
2023-02-17T23:22:23.324Z,21.8
2023-02-17T23:24:06.729Z,21.8
2023-02-17T23:25:50.100Z,21.8
2023-02-17T23:27:33.500Z,21.8
2023-02-17T23:29:17.011Z,21.8
2023-02-17T23:31:00.330Z,21.8
2023-02-17T23:32:43.760Z,21.8
2023-02-17T23:36:10.176Z,21.8
2023-02-17T23:37:53.558Z,21.8
2023-02-17T23:39:36.947Z,21.8
2023-02-17T23:41:20.372Z,21.8
2023-02-17T23:43:03.747Z,21.8
2023-02-17T23:44:47.153Z,21.8
2023-02-17T23:46:30.621Z,21.8
2023-02-17T23:48:13.939Z,21.8
2023-02-17T23:51:40.421Z,21.8
2023-02-17T23:53:23.862Z,21.8
2023-02-17T23:55:07.206Z,21.8
2023-02-17T23:56:50.649Z,21.8
2023-02-17T23:58:34.017Z,21.8
